Mahwah, NJ

1:56 PM EDT on March 31, 2015 (GMT -0400)
ROSE | | Change Station
CLOSE
Current Station
Personal Weather Station
Location: RAMSEY, NJ
Elevation: 375 ft
Nearby Weather Stations

Elev 375 ft 41.04 °N, 74.14 °W | Updated 4 seconds ago

Overcast
Overcast
40.5 °F
Feels Like 39 °F
N
3.1
Wind Variable Wind from SW
Gusts 3.1 mph

Today
High -- | Low -- °F
--% Chance of Precip.
Yesterday
High -- | Low -- °F
Precip. -- in
6:42 AM 7:20 PM
Waxing Gibbous, 88% visible
Pressure 29.81 in
Visibility 8.0 miles
Clouds Mostly Cloudy 2100 ft
Mostly Cloudy 2800 ft
Overcast 4500 ft
Windchill 39 °F
Dew Point 12 °F
Humidity 31%
Rainfall 0.00 in
Snow Depth Not available.
UV 2 out of 12
Pollen 6.40 out of 12
Air Quality Not available.
Flu Activity Not available.
METAR KCDW 311753Z 31004KT 8SM -RA BKN021 BKN028 OVC045 03/M01 A2979 RMK AO2 RAB09 SLP095 P0001 60001 T00281006 10072 20028 56024

More Conditions Fewer Conditions

Pressure 29.81 in
Visibility 8.0 miles
Clouds Mostly Cloudy 2100 ft
Mostly Cloudy 2800 ft
Overcast 4500 ft
Windchill 39 °F
Dew Point 12 °F
Humidity 31%
Rainfall 0.00 in
Snow Depth Not available.
UV 2 out of 12
Pollen 6.40 out of 12
Air Quality Not available.
Flu Activity Not available.
METAR KCDW 311753Z 31004KT 8SM -RA BKN021 BKN028 OVC045 03/M01 A2979 RMK AO2 RAB09 SLP095 P0001 60001 T00281006 10072 20028 56024

More Conditions Fewer Conditions

10-Day Weather Forecast

Almanac

Astronomy

Mar. 31, 2015 Rise Set
Actual Time
Civil Twilight
Nautical Twilight
Astronomical Twilight
Moon
Length of Visible Light
Length of Day
Tomorrow will be .
, % of the Moon is Illuminated

Today's Extremes

State Highs State Lows

Community

WunderPhotos

Upload Photos

1,809,787 photos uploaded!

WunderBlogs® & News

Nearby

Air Quality

  Air Quality AQ Index Pollutant
Not available.

Snow Depth

Station Depth Elevation

Earthquake Activity

City Distance Mag. Time & Date
Minimum magnitude displayed is 2.5.

Coastal Water Temperatures

Place Temperature

Stations

Nearby Weather Stations

Station Location Temp. Windchill Dew Point Humidity Wind Precip. Elev Updated Type